createdAt,value
2018-08-23T00:01:19.715Z,78.37
2018-08-23T00:03:48.833Z,78.79
2018-08-23T00:06:17.912Z,78.73
2018-08-23T00:08:48.667Z,78.47
2018-08-23T00:11:23.263Z,78.82
2018-08-23T00:13:52.516Z,78.91
2018-08-23T00:16:31.780Z,78.31
2018-08-23T00:19:01.508Z,78.70
2018-08-23T00:21:30.579Z,78.81
2018-08-23T00:24:06.581Z,78.63
2018-08-23T00:26:36.617Z,79.08
2018-08-23T00:29:12.058Z,79.45
2018-08-23T00:31:41.680Z,79.42
2018-08-23T00:34:11.319Z,79.31
2018-08-23T00:36:40.392Z,79.60
2018-08-23T00:39:10.259Z,79.84
2018-08-23T00:41:39.390Z,79.93
2018-08-23T00:44:08.505Z,80.07
2018-08-23T00:46:37.600Z,79.84
2018-08-23T00:49:06.715Z,79.76
2018-08-23T00:51:52.127Z,80.10
2018-08-23T00:54:25.586Z,79.86
2018-08-23T00:56:54.683Z,79.97
2018-08-23T00:59:23.784Z,80.36
2018-08-23T01:02:09.910Z,80.29
2018-08-23T01:04:45.027Z,80.41
2018-08-23T01:07:18.575Z,80.72
2018-08-23T01:09:47.704Z,80.71
2018-08-23T01:12:16.861Z,80.69
2018-08-23T01:14:45.919Z,80.96
2018-08-23T01:17:18.570Z,80.88
2018-08-23T01:19:57.504Z,80.98
2018-08-23T01:22:26.626Z,80.99
2018-08-23T01:24:55.686Z,81.00
2018-08-23T01:27:30.060Z,80.87
2018-08-23T01:29:59.137Z,80.94
2018-08-23T01:32:33.093Z,81.65
2018-08-23T01:35:02.305Z,81.79
2018-08-23T01:37:39.785Z,81.99
2018-08-23T01:40:10.248Z,82.33
2018-08-23T01:42:40.486Z,81.73
2018-08-23T01:45:10.696Z,82.07
2018-08-23T01:47:55.956Z,81.88
2018-08-23T01:50:25.775Z,82.09
2018-08-23T01:52:56.208Z,81.91
2018-08-23T01:55:26.068Z,82.13
2018-08-23T01:57:55.528Z,82.52
2018-08-23T02:00:25.917Z,82.27
2018-08-23T02:02:55.165Z,82.50
2018-08-23T02:05:24.429Z,82.35
2018-08-23T02:07:53.515Z,82.86
2018-08-23T02:10:22.666Z,82.89
2018-08-23T02:12:53.107Z,83.12
2018-08-23T02:15:22.469Z,83.47
2018-08-23T02:17:54.811Z,83.55
2018-08-23T02:20:24.965Z,84.02
2018-08-23T02:22:54.754Z,84.10
2018-08-23T02:25:24.059Z,84.00
2018-08-23T02:28:04.385Z,84.25
2018-08-23T02:30:54.926Z,84.57
2018-08-23T02:33:24.543Z,84.65
2018-08-23T02:36:05.894Z,84.93
2018-08-23T02:38:36.102Z,84.59
2018-08-23T02:41:05.266Z,84.66
2018-08-23T02:43:34.330Z,84.79
2018-08-23T02:46:03.614Z,84.83
2018-08-23T02:48:32.656Z,84.90
2018-08-23T02:51:01.713Z,84.80
2018-08-23T02:53:36.359Z,84.74
2018-08-23T02:56:08.513Z,85.83
2018-08-23T02:59:09.512Z,85.61
2018-08-23T03:01:44.729Z,85.99
2018-08-23T03:04:25.100Z,86.10
2018-08-23T03:07:00.230Z,85.89
2018-08-23T03:09:45.113Z,85.97
2018-08-23T03:12:19.184Z,86.20
2018-08-23T03:14:48.656Z,86.32
2018-08-23T03:17:23.167Z,86.50
2018-08-23T03:20:12.307Z,86.72
2018-08-23T03:22:42.085Z,86.70
2018-08-23T03:25:12.397Z,86.95
2018-08-23T03:27:41.490Z,87.48
2018-08-23T03:30:11.898Z,88.06
2018-08-23T03:32:40.993Z,87.74
2018-08-23T03:35:10.213Z,87.59
2018-08-23T03:37:39.262Z,88.60
2018-08-23T03:40:09.914Z,88.22
2018-08-23T03:42:39.095Z,88.35
2018-08-23T03:45:13.386Z,88.98
2018-08-23T03:47:47.818Z,89.09
2018-08-23T03:50:16.957Z,89.25
2018-08-23T03:52:48.101Z,89.58
2018-08-23T03:55:38.322Z,88.87
2018-08-23T03:58:07.566Z,89.01
2018-08-23T04:01:07.386Z,88.72
2018-08-23T04:03:38.721Z,89.17
2018-08-23T04:06:22.835Z,89.31
2018-08-23T04:08:51.927Z,88.84
2018-08-23T04:11:21.056Z,88.64
2018-08-23T04:13:50.392Z,89.17
2018-08-23T04:16:28.423Z,89.57
2018-08-23T04:18:57.892Z,89.64
2018-08-23T04:21:27.768Z,90.18
2018-08-23T04:23:56.894Z,90.58
2018-08-23T04:26:26.927Z,90.63
2018-08-23T04:28:56.034Z,90.77
2018-08-23T04:31:25.160Z,90.33
2018-08-23T04:33:54.248Z,90.35
2018-08-23T04:36:29.893Z,90.81
2018-08-23T04:39:03.061Z,91.05
2018-08-23T04:41:32.839Z,90.82
2018-08-23T04:44:09.643Z,91.09
2018-08-23T04:46:38.737Z,90.67
2018-08-23T04:49:08.233Z,91.00
2018-08-23T04:51:38.176Z,91.30
2018-08-23T04:54:07.343Z,91.52
2018-08-23T04:56:37.811Z,91.29
2018-08-23T04:59:06.948Z,91.22
2018-08-23T05:01:41.145Z,91.26
2018-08-23T05:04:15.206Z,91.61
2018-08-23T05:06:45.261Z,91.36
2018-08-23T05:09:14.494Z,91.01
2018-08-23T05:11:43.741Z,90.93
2018-08-23T05:14:13.473Z,91.11
2018-08-23T05:16:42.823Z,91.05
2018-08-23T05:19:12.379Z,91.04
2018-08-23T05:21:41.617Z,90.76
2018-08-23T05:24:12.164Z,90.91
2018-08-23T05:26:41.946Z,91.93
2018-08-23T05:29:11.660Z,91.91
2018-08-23T05:31:40.974Z,92.27
2018-08-23T05:34:10.256Z,92.54
2018-08-23T05:36:39.559Z,92.24
2018-08-23T05:39:09.357Z,92.16
2018-08-23T05:41:38.566Z,92.44
2018-08-23T05:44:14.044Z,92.21
2018-08-23T05:46:59.569Z,92.30
2018-08-23T05:49:28.971Z,92.04
2018-08-23T05:51:59.551Z,91.82
2018-08-23T05:54:28.776Z,92.03
2018-08-23T05:56:57.875Z,91.77
2018-08-23T05:59:27.035Z,90.70
2018-08-23T06:01:56.130Z,90.95
2018-08-23T06:04:36.297Z,90.10
2018-08-23T06:07:05.387Z,90.06
2018-08-23T06:09:34.462Z,90.21
2018-08-23T06:12:03.647Z,89.24
2018-08-23T06:14:32.763Z,88.66
2018-08-23T06:17:01.960Z,88.36
2018-08-23T06:19:33.081Z,88.82
2018-08-23T06:22:05.839Z,88.93
2018-08-23T06:24:36.194Z,88.87
2018-08-23T06:27:05.518Z,88.12
2018-08-23T06:29:35.537Z,88.08
2018-08-23T06:32:08.100Z,88.19
2018-08-23T06:34:40.843Z,87.96
2018-08-23T06:37:09.965Z,87.91
2018-08-23T06:39:41.392Z,86.99
2018-08-23T06:42:10.660Z,86.88
2018-08-23T06:44:45.031Z,86.73
2018-08-23T06:47:21.828Z,86.37
2018-08-23T06:49:51.951Z,86.32
2018-08-23T06:53:00.812Z,85.62
2018-08-23T06:55:37.373Z,85.62
2018-08-23T06:58:06.502Z,85.44
2018-08-23T07:00:35.614Z,84.41
2018-08-23T07:03:05.186Z,83.67
2018-08-23T07:05:34.371Z,83.64
2018-08-23T07:08:03.380Z,83.57
2018-08-23T07:10:32.474Z,83.11
2018-08-23T07:13:01.603Z,82.63
2018-08-23T07:15:30.706Z,81.96
2018-08-23T07:18:01.371Z,81.57
2018-08-23T07:20:30.519Z,81.41
2018-08-23T07:22:59.609Z,81.37
2018-08-23T07:25:32.856Z,80.93
2018-08-23T07:28:01.923Z,80.35
2018-08-23T07:30:31.031Z,80.16
2018-08-23T07:33:00.166Z,79.46
2018-08-23T07:35:29.251Z,79.51
2018-08-23T07:37:58.370Z,79.65
2018-08-23T07:40:27.501Z,79.71
2018-08-23T07:42:56.659Z,79.60
2018-08-23T07:45:25.783Z,78.65
2018-08-23T07:47:56.039Z,78.96
2018-08-23T07:50:25.130Z,79.31
2018-08-23T07:52:55.050Z,79.54
2018-08-23T07:55:24.044Z,79.48
2018-08-23T07:57:53.106Z,79.38
2018-08-23T08:00:29.080Z,79.32
2018-08-23T08:02:58.134Z,79.13
2018-08-23T08:05:31.923Z,78.67
2018-08-23T08:08:01.122Z,77.99
2018-08-23T08:10:33.371Z,77.43
2018-08-23T08:13:02.449Z,77.50
2018-08-23T08:15:31.611Z,77.56
2018-08-23T08:18:06.670Z,77.22
2018-08-23T08:20:35.769Z,76.24
2018-08-23T08:23:04.966Z,76.39
2018-08-23T08:25:34.124Z,75.85
2018-08-23T08:28:03.417Z,75.46
2018-08-23T08:30:41.571Z,75.15
2018-08-23T08:33:13.643Z,73.25
2018-08-23T08:35:43.809Z,73.87
2018-08-23T08:38:13.191Z,73.85
2018-08-23T08:40:42.298Z,74.02
2018-08-23T08:43:11.429Z,73.40
2018-08-23T08:45:40.572Z,73.00
2018-08-23T08:48:24.918Z,72.11
2018-08-23T08:51:10.649Z,70.83
2018-08-23T08:53:39.726Z,71.29
2018-08-23T08:56:09.075Z,71.10
2018-08-23T08:58:38.420Z,71.07
2018-08-23T09:01:07.529Z,69.86
2018-08-23T09:03:37.912Z,69.26
2018-08-23T09:06:10.231Z,68.94
2018-08-23T09:08:39.690Z,68.86
2018-08-23T09:11:08.818Z,68.03
2018-08-23T09:13:43.187Z,68.94
2018-08-23T09:16:12.518Z,67.73
2018-08-23T09:18:46.607Z,68.00
2018-08-23T09:21:15.786Z,66.26
2018-08-23T09:23:45.002Z,65.69
2018-08-23T09:26:14.173Z,65.20
2018-08-23T09:28:43.311Z,64.99
2018-08-23T09:31:12.512Z,64.27
2018-08-23T09:33:42.740Z,64.04
2018-08-23T09:36:12.645Z,62.17
2018-08-23T09:38:42.313Z,61.36
2018-08-23T09:41:12.215Z,60.76
2018-08-23T09:43:42.599Z,60.78
2018-08-23T09:46:12.437Z,60.00
2018-08-23T09:48:42.332Z,60.45
2018-08-23T09:51:16.979Z,59.12
2018-08-23T09:53:46.615Z,59.85
2018-08-23T09:56:21.549Z,58.70
2018-08-23T09:58:52.849Z,56.99
2018-08-23T10:02:30.579Z,56.51
2018-08-23T10:05:06.728Z,56.36
2018-08-23T10:07:41.601Z,57.29
2018-08-23T10:10:16.403Z,57.34
2018-08-23T10:12:51.167Z,57.53
2018-08-23T10:15:29.038Z,56.96
2018-08-23T10:18:05.305Z,54.64
2018-08-23T10:20:45.380Z,55.98
2018-08-23T10:23:15.676Z,55.93
2018-08-23T10:25:48.553Z,55.21
2018-08-23T10:28:19.765Z,55.37
2018-08-23T10:30:50.287Z,54.95
2018-08-23T10:33:20.261Z,54.81
2018-08-23T10:35:54.818Z,55.25
2018-08-23T10:38:26.610Z,53.43
2018-08-23T10:41:01.018Z,52.17
2018-08-23T10:43:35.846Z,54.07
2018-08-23T10:46:05.960Z,52.92
2018-08-23T10:48:35.230Z,52.39
2018-08-23T10:51:04.665Z,51.12
2018-08-23T10:53:33.806Z,50.22
2018-08-23T10:56:03.127Z,50.11
2018-08-23T10:58:32.823Z,49.59
2018-08-23T11:01:02.222Z,50.81
2018-08-23T11:03:31.419Z,51.42
2018-08-23T11:06:00.882Z,52.71
2018-08-23T11:08:32.038Z,52.40
2018-08-23T11:11:06.676Z,52.71
2018-08-23T11:13:41.169Z,53.77
2018-08-23T11:16:15.455Z,54.00
2018-08-23T11:19:53.201Z,54.34
2018-08-23T11:22:26.425Z,53.24
2018-08-23T11:24:55.530Z,51.85
2018-08-23T11:27:24.655Z,51.33
2018-08-23T11:29:53.813Z,51.42
2018-08-23T11:32:23.323Z,49.96
2018-08-23T11:34:53.111Z,50.53
2018-08-23T11:37:22.242Z,50.86
2018-08-23T11:39:51.425Z,50.24
2018-08-23T11:42:20.531Z,49.92
2018-08-23T11:44:49.627Z,49.84
2018-08-23T11:47:18.753Z,48.85
2018-08-23T11:49:47.834Z,49.24
2018-08-23T11:52:16.942Z,49.76
2018-08-23T11:54:46.098Z,48.59
2018-08-23T11:57:15.261Z,48.19
2018-08-23T11:59:44.448Z,48.53
2018-08-23T12:02:13.626Z,48.15
2018-08-23T12:04:42.732Z,48.52
2018-08-23T12:07:11.825Z,48.35
2018-08-23T12:09:40.907Z,46.62
2018-08-23T12:12:10.080Z,46.11
2018-08-23T12:14:39.275Z,46.30
2018-08-23T12:17:08.396Z,46.53
2018-08-23T12:19:37.456Z,44.75
2018-08-23T12:22:06.584Z,44.71
2018-08-23T12:24:35.702Z,42.41
2018-08-23T12:27:04.832Z,43.04
2018-08-23T12:29:33.944Z,44.97
2018-08-23T12:32:03.175Z,44.06
2018-08-23T12:34:34.450Z,44.31
2018-08-23T12:37:08.949Z,44.92
2018-08-23T12:39:43.260Z,45.17
2018-08-23T12:42:17.683Z,45.10
2018-08-23T12:44:52.904Z,44.56
2018-08-23T12:47:22.142Z,43.51
2018-08-23T12:49:51.341Z,43.22
2018-08-23T12:52:22.258Z,44.46
2018-08-23T12:54:51.730Z,44.10
2018-08-23T12:57:20.849Z,43.39
2018-08-23T12:59:50.021Z,43.65
2018-08-23T13:02:25.927Z,44.17
2018-08-23T13:04:55.031Z,44.47
2018-08-23T13:07:24.111Z,44.62
2018-08-23T13:09:53.231Z,44.06
2018-08-23T13:12:23.119Z,43.64
2018-08-23T13:14:52.232Z,43.30
2018-08-23T13:17:21.321Z,43.70
2018-08-23T13:19:50.418Z,42.96
2018-08-23T13:22:24.784Z,42.28
2018-08-23T13:24:59.129Z,43.50
2018-08-23T13:27:30.662Z,45.22
2018-08-23T13:30:00.381Z,43.24
2018-08-23T13:32:29.613Z,43.50
2018-08-23T13:34:59.304Z,42.99
2018-08-23T13:37:29.270Z,41.70
2018-08-23T13:39:58.397Z,41.41
2018-08-23T13:42:27.519Z,41.58
2018-08-23T13:44:56.667Z,41.68
2018-08-23T13:47:25.917Z,42.43
2018-08-23T13:49:54.998Z,43.33
2018-08-23T13:52:24.064Z,44.07
2018-08-23T13:54:53.155Z,43.88
2018-08-23T13:57:22.198Z,43.50
2018-08-23T13:59:51.269Z,43.11
2018-08-23T14:02:20.428Z,42.65
2018-08-23T14:04:49.431Z,43.10
2018-08-23T14:07:18.635Z,44.31
2018-08-23T14:09:47.734Z,43.65
2018-08-23T14:12:16.925Z,43.20
2018-08-23T14:14:46.063Z,42.80
2018-08-23T14:17:15.206Z,41.83
2018-08-23T14:19:44.312Z,42.46
2018-08-23T14:22:13.436Z,43.00
2018-08-23T14:24:42.568Z,42.81
2018-08-23T14:27:11.716Z,42.39
2018-08-23T14:29:40.859Z,42.35
2018-08-23T14:32:09.976Z,42.83
2018-08-23T14:34:39.073Z,44.36
2018-08-23T14:37:08.156Z,43.53
2018-08-23T14:39:37.246Z,42.66
2018-08-23T14:42:06.395Z,42.51
2018-08-23T14:44:35.482Z,42.59
2018-08-23T14:47:11.839Z,42.88
2018-08-23T14:49:42.452Z,42.82
2018-08-23T14:52:12.496Z,42.80
2018-08-23T14:54:45.958Z,43.81
2018-08-23T14:57:20.935Z,42.47
2018-08-23T14:59:50.088Z,42.98
2018-08-23T15:02:19.249Z,44.49
2018-08-23T15:04:49.254Z,44.64
2018-08-23T15:07:18.568Z,44.77
2018-08-23T15:09:47.671Z,44.75
2018-08-23T15:12:16.777Z,45.31
2018-08-23T15:14:45.876Z,45.53
2018-08-23T15:17:15.089Z,46.13
2018-08-23T15:19:44.216Z,46.02
2018-08-23T15:22:13.338Z,46.17
2018-08-23T15:24:42.479Z,46.22
2018-08-23T15:27:11.761Z,46.52
2018-08-23T15:29:40.753Z,46.47
2018-08-23T15:32:09.840Z,46.98
2018-08-23T15:34:38.948Z,47.87
2018-08-23T15:37:08.108Z,47.94
2018-08-23T15:39:39.982Z,48.41
2018-08-23T15:42:09.195Z,48.75
2018-08-23T15:44:38.305Z,49.22
2018-08-23T15:47:08.852Z,50.16
2018-08-23T15:49:37.966Z,50.23
2018-08-23T15:52:07.408Z,50.25
2018-08-23T15:54:36.471Z,51.01
2018-08-23T15:57:05.707Z,50.59
2018-08-23T15:59:34.887Z,51.23
2018-08-23T16:02:04.127Z,51.40
2018-08-23T16:04:33.266Z,52.39
2018-08-23T16:07:02.406Z,52.40
2018-08-23T16:09:31.498Z,52.41
2018-08-23T16:12:00.592Z,53.08
2018-08-23T16:14:29.780Z,52.84
2018-08-23T16:17:04.100Z,52.38
2018-08-23T16:19:38.573Z,53.15
2018-08-23T16:22:07.686Z,53.48
2018-08-23T16:24:36.765Z,53.18
2018-08-23T16:27:06.968Z,53.08
2018-08-23T16:29:36.077Z,52.89
2018-08-23T16:32:05.571Z,53.14
2018-08-23T16:34:34.704Z,53.62
2018-08-23T16:37:03.817Z,53.74
2018-08-23T16:39:33.020Z,53.39
2018-08-23T16:42:02.180Z,53.56
2018-08-23T16:44:31.246Z,53.91
2018-08-23T16:47:00.391Z,54.55
2018-08-23T16:49:29.512Z,54.04
2018-08-23T16:51:58.599Z,54.14
2018-08-23T16:54:27.676Z,54.07
2018-08-23T16:56:56.840Z,54.05
2018-08-23T16:59:25.915Z,54.18
2018-08-23T17:01:55.022Z,53.68
2018-08-23T17:04:28.288Z,54.10
2018-08-23T17:06:57.393Z,54.79
2018-08-23T17:09:26.758Z,54.74
2018-08-23T17:11:55.839Z,55.11
2018-08-23T17:14:24.937Z,54.80
2018-08-23T17:16:59.294Z,55.24
2018-08-23T17:19:28.493Z,55.52
2018-08-23T17:21:57.949Z,55.53
2018-08-23T17:24:27.291Z,55.20
2018-08-23T17:26:56.427Z,54.99
2018-08-23T17:29:25.570Z,55.96
2018-08-23T17:31:55.240Z,55.79
2018-08-23T17:34:24.330Z,55.63
2018-08-23T17:36:53.932Z,56.29
2018-08-23T17:39:23.265Z,56.66
2018-08-23T17:41:52.526Z,56.46
2018-08-23T17:44:22.346Z,56.80
2018-08-23T17:46:51.700Z,57.07
2018-08-23T17:49:20.820Z,57.15
2018-08-23T17:51:49.993Z,57.08
2018-08-23T17:54:31.148Z,57.18
2018-08-23T17:57:00.299Z,57.27
2018-08-23T17:59:29.458Z,56.63
2018-08-23T18:01:58.618Z,56.73
2018-08-23T18:04:27.762Z,57.20
2018-08-23T18:06:56.880Z,57.14
2018-08-23T18:09:26.108Z,57.32
2018-08-23T18:11:55.197Z,57.73
2018-08-23T18:14:24.330Z,57.71
2018-08-23T18:17:00.570Z,58.23
2018-08-23T18:19:29.759Z,57.98
2018-08-23T18:21:58.857Z,58.13
2018-08-23T18:24:27.999Z,58.32
2018-08-23T18:26:57.328Z,58.43
2018-08-23T18:29:26.484Z,58.59
2018-08-23T18:31:55.664Z,58.99
2018-08-23T18:34:24.796Z,58.70
2018-08-23T18:36:53.882Z,58.82
2018-08-23T18:39:22.989Z,59.04
2018-08-23T18:41:52.128Z,59.13
2018-08-23T18:44:21.464Z,59.17
2018-08-23T18:46:50.551Z,58.85
2018-08-23T18:49:19.723Z,59.20
2018-08-23T18:51:48.864Z,59.06
2018-08-23T18:54:18.010Z,59.25
2018-08-23T18:56:47.095Z,58.63
2018-08-23T18:59:22.724Z,58.86
2018-08-23T19:01:51.860Z,59.39
2018-08-23T19:04:20.997Z,59.13
2018-08-23T19:06:50.149Z,59.78
2018-08-23T19:09:19.187Z,59.73
2018-08-23T19:11:48.325Z,59.45
2018-08-23T19:14:17.426Z,59.18
2018-08-23T19:16:52.439Z,59.48
2018-08-23T19:19:21.612Z,59.49
2018-08-23T19:21:50.790Z,59.37
2018-08-23T19:24:19.887Z,59.38
2018-08-23T19:26:55.521Z,59.79
2018-08-23T19:29:24.647Z,59.15
2018-08-23T19:31:53.788Z,60.09
2018-08-23T19:34:22.882Z,59.48
2018-08-23T19:36:52.043Z,59.47
2018-08-23T19:39:27.514Z,59.81
2018-08-23T19:41:56.636Z,60.37
2018-08-23T19:44:25.710Z,60.44
2018-08-23T19:47:00.192Z,60.64
2018-08-23T19:49:34.391Z,60.72
2018-08-23T19:52:03.665Z,60.82
2018-08-23T19:54:32.732Z,60.59
2018-08-23T19:57:01.849Z,60.70
2018-08-23T19:59:30.996Z,60.51
2018-08-23T20:02:00.194Z,60.90
2018-08-23T20:04:29.304Z,61.09
2018-08-23T20:06:58.505Z,61.30
2018-08-23T20:09:27.539Z,61.43
2018-08-23T20:11:56.625Z,61.96
2018-08-23T20:14:25.773Z,61.83
2018-08-23T20:16:55.025Z,61.77
2018-08-23T20:19:24.527Z,61.73
2018-08-23T20:21:53.744Z,61.90
2018-08-23T20:24:22.927Z,62.21
2018-08-23T20:26:52.076Z,62.46
2018-08-23T20:29:21.566Z,62.30
2018-08-23T20:31:51.334Z,62.47
2018-08-23T20:34:20.449Z,62.72
2018-08-23T20:36:49.560Z,62.76
2018-08-23T20:39:19.490Z,62.97
2018-08-23T20:41:48.806Z,62.87
2018-08-23T20:44:17.928Z,63.30
2018-08-23T20:46:47.053Z,63.68
2018-08-23T20:49:16.203Z,63.53
2018-08-23T20:51:45.348Z,63.64
2018-08-23T20:54:14.441Z,63.52
2018-08-23T20:56:43.634Z,63.95
2018-08-23T20:59:12.729Z,63.75
2018-08-23T21:01:41.829Z,64.25
2018-08-23T21:04:11.022Z,64.03
2018-08-23T21:06:40.127Z,64.73
2018-08-23T21:09:11.179Z,64.45
2018-08-23T21:11:40.707Z,64.05
2018-08-23T21:14:10.593Z,64.31
2018-08-23T21:16:40.480Z,64.31
2018-08-23T21:19:09.705Z,64.56
2018-08-23T21:21:38.898Z,64.95
2018-08-23T21:24:08.003Z,64.97
2018-08-23T21:26:37.126Z,65.55
2018-08-23T21:29:06.252Z,65.35
2018-08-23T21:31:35.463Z,66.10
2018-08-23T21:34:04.603Z,65.27
2018-08-23T21:36:33.707Z,65.14
2018-08-23T21:39:02.855Z,65.54
2018-08-23T21:41:31.971Z,65.79
2018-08-23T21:44:01.171Z,65.72
2018-08-23T21:46:30.332Z,66.02
2018-08-23T21:48:59.413Z,65.84
2018-08-23T21:51:28.500Z,66.45
2018-08-23T21:53:58.620Z,66.27
2018-08-23T21:56:27.688Z,66.51
2018-08-23T21:58:56.800Z,66.81
2018-08-23T22:01:25.895Z,66.36
2018-08-23T22:03:55.011Z,66.44
2018-08-23T22:06:24.103Z,66.25
2018-08-23T22:08:53.265Z,66.37
2018-08-23T22:11:22.405Z,66.04
2018-08-23T22:13:51.668Z,65.91
2018-08-23T22:16:20.751Z,66.44
2018-08-23T22:18:49.871Z,66.04
2018-08-23T22:21:18.955Z,65.87
2018-08-23T22:23:48.115Z,66.25
2018-08-23T22:26:18.251Z,66.02
2018-08-23T22:28:47.294Z,65.72
2018-08-23T22:31:16.395Z,65.76
2018-08-23T22:33:45.478Z,66.12
2018-08-23T22:36:14.636Z,65.82
2018-08-23T22:38:43.867Z,66.07
2018-08-23T22:41:12.977Z,65.94
2018-08-23T22:43:42.644Z,66.02
2018-08-23T22:46:11.758Z,65.94
2018-08-23T22:48:40.848Z,65.82
2018-08-23T22:51:09.956Z,65.86
2018-08-23T22:53:39.137Z,66.38
2018-08-23T22:56:08.575Z,65.85
2018-08-23T22:58:37.681Z,65.72
2018-08-23T23:01:06.779Z,66.03
2018-08-23T23:03:41.124Z,66.02
2018-08-23T23:06:10.250Z,66.37
2018-08-23T23:08:39.407Z,66.09
2018-08-23T23:11:08.526Z,66.52
2018-08-23T23:13:37.591Z,66.32
2018-08-23T23:16:06.712Z,66.76
2018-08-23T23:18:35.843Z,66.74
2018-08-23T23:21:04.900Z,67.04
2018-08-23T23:23:34.018Z,67.37
2018-08-23T23:26:03.124Z,67.06
2018-08-23T23:28:32.207Z,67.42
2018-08-23T23:31:01.248Z,68.02
2018-08-23T23:33:30.327Z,67.90
2018-08-23T23:35:59.458Z,68.39
2018-08-23T23:38:28.565Z,68.73
2018-08-23T23:40:57.734Z,68.86
2018-08-23T23:43:26.870Z,69.23
2018-08-23T23:46:02.299Z,69.80
2018-08-23T23:48:31.457Z,70.18
2018-08-23T23:51:00.618Z,71.15
2018-08-23T23:53:29.700Z,82.76
2018-08-23T23:55:58.761Z,89.47
2018-08-23T23:58:27.855Z,91.02
